Time;durP1;ratioP1;P1;durP2;ratioP2;P2;SDS_P1;SDS_P2;PMS_P1;PMS_P2;Temp;Humidity;BMP_temperature;BMP_pressure;BME280_temperature;BME280_humidity;BME280_pressure;Samples;Min_cycle;Max_cycle;Signal;HPM_P1;HPM_P2
2021/08/15 00:00:42;;;;;;;12.10;8.55;;;;;;;;;;2089528;28;20179;-58
2021/08/15 00:01:43;;;;;;;13.35;8.75;;;;;;;;;;2089500;28;20178;-58
2021/08/15 00:02:43;;;;;;;11.13;8.77;;;;;;;;;;2089633;28;20213;-57
2021/08/15 00:03:43;;;;;;;14.07;9.15;;;;;;;;;;2089404;28;20188;-58
2021/08/15 00:04:44;;;;;;;13.68;8.30;;;;;;;;;;2089596;28;20188;-58
2021/08/15 00:05:44;;;;;;;12.07;8.35;;;;;;;;;;2089501;28;20199;-58
2021/08/15 00:06:44;;;;;;;10.60;8.38;;;;;;;;;;2089677;28;20192;-59
2021/08/15 00:07:44;;;;;;;12.95;8.82;;;;;;;;;;2089428;28;20197;-60
2021/08/15 00:08:47;;;;;;;11.73;8.80;;;;;;;;;;2089202;28;20175;-57
2021/08/15 00:09:48;;;;;;;10.95;7.82;;;;;;;;;;2089600;28;20558;-56
2021/08/15 00:10:48;;;;;;;12.93;9.15;;;;;;;;;;2089715;28;20180;-59
2021/08/15 00:11:48;;;;;;;12.40;8.50;;;;;;;;;;2089580;28;20174;-57
2021/08/15 00:12:49;;;;;;;10.40;7.80;;;;;;;;;;2089525;28;20172;-55
2021/08/15 00:13:49;;;;;;;13.35;9.10;;;;;;;;;;2089501;28;20233;-59
2021/08/15 00:14:49;;;;;;;11.93;8.43;;;;;;;;;;2085949;28;20160;-58
2021/08/15 00:15:49;;;;;;;12.68;9.73;;;;;;;;;;2090900;28;20640;-57
2021/08/15 00:16:50;;;;;;;13.82;10.77;;;;;;;;;;2093595;28;20871;-59
2021/08/15 00:17:50;;;;;;;16.48;12.65;;;;;;;;;;2088962;28;20176;-57
2021/08/15 00:18:50;;;;;;;20.75;13.02;;;;;;;;;;2078739;28;20667;-56
2021/08/15 00:19:50;;;;;;;17.45;12.48;;;;;;;;;;2080067;28;20176;-58
2021/08/15 00:20:50;;;;;;;13.15;10.63;;;;;;;;;;2088016;28;20179;-58
2021/08/15 00:21:51;;;;;;;14.20;9.82;;;;;;;;;;2083587;28;20179;-59
2021/08/15 00:22:51;;;;;;;12.48;9.93;;;;;;;;;;2080904;28;20655;-59
2021/08/15 00:23:51;;;;;;;11.98;8.15;;;;;;;;;;2089340;28;20498;-59
2021/08/15 00:24:51;;;;;;;15.57;9.45;;;;;;;;;;2087296;28;20167;-60
2021/08/15 00:25:52;;;;;;;13.77;9.27;;;;;;;;;;2091677;28;20605;-60
2021/08/15 00:26:52;;;;;;;16.45;9.48;;;;;;;;;;2078829;28;20291;-62
2021/08/15 00:27:53;;;;;;;14.05;9.80;;;;;;;;;;2075598;28;20180;-56
2021/08/15 00:28:53;;;;;;;13.43;9.85;;;;;;;;;;2083119;28;20184;-59
2021/08/15 00:29:53;;;;;;;12.25;9.10;;;;;;;;;;2087454;28;20171;-56
2021/08/15 00:30:53;;;;;;;13.38;9.35;;;;;;;;;;2088071;28;20266;-58
2021/08/15 00:31:54;;;;;;;13.60;9.52;;;;;;;;;;2091288;28;20284;-52
2021/08/15 00:32:54;;;;;;;10.15;9.02;;;;;;;;;;2080189;28;20179;-59
2021/08/15 00:33:54;;;;;;;12.35;9.10;;;;;;;;;;2089162;28;20266;-59
2021/08/15 00:34:55;;;;;;;14.05;9.40;;;;;;;;;;2085528;28;20292;-60
2021/08/15 00:35:55;;;;;;;10.25;9.20;;;;;;;;;;2081645;28;20206;-58
2021/08/15 00:36:55;;;;;;;12.25;9.50;;;;;;;;;;2076979;28;20168;-52
2021/08/15 00:37:55;;;;;;;13.27;8.95;;;;;;;;;;2080782;28;20539;-58
2021/08/15 00:38:56;;;;;;;14.52;9.30;;;;;;;;;;2085589;28;20219;-59
2021/08/15 00:39:56;;;;;;;12.57;9.82;;;;;;;;;;2088317;28;20168;-57
2021/08/15 00:40:56;;;;;;;14.93;10.27;;;;;;;;;;2085610;28;20187;-56
2021/08/15 00:41:57;;;;;;;11.90;8.68;;;;;;;;;;2087997;28;20208;-56
2021/08/15 00:42:57;;;;;;;13.98;9.20;;;;;;;;;;2086186;28;20170;-58
2021/08/15 00:43:58;;;;;;;9.80;8.80;;;;;;;;;;2088196;28;20183;-58
2021/08/15 00:44:59;;;;;;;10.98;9.68;;;;;;;;;;2086337;28;20651;-58
2021/08/15 00:46:05;;;;;;;13.15;9.85;;;;;;;;;;2089848;28;20180;-61
2021/08/15 00:47:06;;;;;;;16.33;9.85;;;;;;;;;;2089965;28;20183;-60
2021/08/15 00:48:09;;;;;;;16.15;10.57;;;;;;;;;;2085243;28;20180;-56
2021/08/15 00:49:10;;;;;;;16.23;10.18;;;;;;;;;;2087670;28;20187;-59
2021/08/15 00:50:10;;;;;;;11.05;9.18;;;;;;;;;;2090122;28;20255;-59
2021/08/15 00:51:10;;;;;;;13.93;10.00;;;;;;;;;;2087269;28;20167;-59
2021/08/15 00:52:11;;;;;;;11.95;9.27;;;;;;;;;;2082143;28;20169;-59
2021/08/15 00:53:11;;;;;;;15.93;10.48;;;;;;;;;;2090632;28;20172;-59
2021/08/15 00:54:12;;;;;;;10.68;9.05;;;;;;;;;;2089534;28;20359;-60
2021/08/15 00:55:13;;;;;;;15.70;10.00;;;;;;;;;;2090294;28;20172;-50
2021/08/15 00:56:13;;;;;;;16.10;9.82;;;;;;;;;;2088241;28;20266;-57
2021/08/15 00:57:14;;;;;;;14.32;10.20;;;;;;;;;;2090181;28;20167;-54
2021/08/15 00:58:14;;;;;;;10.40;9.10;;;;;;;;;;2088034;28;20191;-55
2021/08/15 00:59:15;;;;;;;13.85;10.45;;;;;;;;;;2079053;28;20195;-59
2021/08/15 01:00:16;;;;;;;16.45;11.05;;;;;;;;;;2087971;28;20180;-59
2021/08/15 01:01:18;;;;;;;16.20;11.88;;;;;;;;;;2090525;28;20206;-60
2021/08/15 01:02:19;;;;;;;16.60;11.00;;;;;;;;;;2089019;28;20569;-57
2021/08/15 01:03:19;;;;;;;17.50;11.55;;;;;;;;;;2087524;28;20207;-58
2021/08/15 01:04:23;;;;;;;16.20;11.35;;;;;;;;;;2088317;28;20164;-59
2021/08/15 01:05:23;;;;;;;15.68;11.70;;;;;;;;;;2085709;28;20175;-60
2021/08/15 01:06:24;;;;;;;16.00;12.05;;;;;;;;;;2088818;28;20291;-55
2021/08/15 01:07:24;;;;;;;15.43;10.77;;;;;;;;;;2085252;28;20164;-60
2021/08/15 01:08:25;;;;;;;18.95;10.68;;;;;;;;;;2088640;28;20620;-59
2021/08/15 01:09:25;;;;;;;14.40;10.75;;;;;;;;;;2089889;28;20237;-57
2021/08/15 01:10:26;;;;;;;15.00;10.40;;;;;;;;;;2089736;28;20674;-60
2021/08/15 01:11:27;;;;;;;13.50;10.93;;;;;;;;;;2084516;28;20586;-61
2021/08/15 01:12:27;;;;;;;13.57;10.60;;;;;;;;;;2089504;28;20191;-59
2021/08/15 01:13:29;;;;;;;14.82;11.45;;;;;;;;;;2083814;28;20179;-59
2021/08/15 01:14:29;;;;;;;15.05;10.50;;;;;;;;;;2089634;28;20199;-60
2021/08/15 01:15:29;;;;;;;13.93;11.07;;;;;;;;;;2090194;28;20553;-60
2021/08/15 01:16:29;;;;;;;12.68;10.77;;;;;;;;;;2090600;28;20652;-58
2021/08/15 01:17:30;;;;;;;13.52;11.18;;;;;;;;;;2089234;28;20172;-58
2021/08/15 01:18:31;;;;;;;19.42;12.38;;;;;;;;;;2089155;28;20171;-60
2021/08/15 01:19:31;;;;;;;21.80;11.82;;;;;;;;;;2082378;28;20656;-61
2021/08/15 01:20:31;;;;;;;14.35;11.55;;;;;;;;;;2081683;28;20160;-60
2021/08/15 01:21:32;;;;;;;18.13;12.50;;;;;;;;;;2081421;28;20247;-59
2021/08/15 01:22:40;;;;;;;18.20;12.65;;;;;;;;;;2090434;28;20167;-60
2021/08/15 01:23:41;;;;;;;17.38;12.10;;;;;;;;;;2090110;28;20203;-58
2021/08/15 01:24:41;;;;;;;16.50;11.65;;;;;;;;;;2089494;28;20184;-58
2021/08/15 01:25:41;;;;;;;19.67;12.90;;;;;;;;;;2089969;28;20246;-59
2021/08/15 01:26:43;;;;;;;13.82;11.07;;;;;;;;;;2087806;28;20211;-57
2021/08/15 01:27:44;;;;;;;19.15;12.10;;;;;;;;;;2090496;28;20176;-57
2021/08/15 01:28:44;;;;;;;16.63;12.77;;;;;;;;;;2089468;28;20168;-55
2021/08/15 01:29:46;;;;;;;18.65;13.00;;;;;;;;;;2090084;28;20581;-57
2021/08/15 01:30:46;;;;;;;18.10;13.23;;;;;;;;;;2082878;28;20245;-60
2021/08/15 01:31:47;;;;;;;16.67;12.45;;;;;;;;;;2084270;28;20278;-58
2021/08/15 01:32:48;;;;;;;17.42;12.73;;;;;;;;;;2083076;28;20230;-59
2021/08/15 01:33:49;;;;;;;17.35;12.95;;;;;;;;;;2083373;28;20176;-59
2021/08/15 01:34:49;;;;;;;17.80;13.30;;;;;;;;;;2083400;28;20168;-58
2021/08/15 01:35:50;;;;;;;21.40;13.40;;;;;;;;;;2070349;28;20256;-60
2021/08/15 01:36:50;;;;;;;18.13;12.75;;;;;;;;;;2083604;28;21810;-57
2021/08/15 01:37:54;;;;;;;18.40;12.30;;;;;;;;;;2089372;28;20179;-60
2021/08/15 01:38:54;;;;;;;16.10;12.60;;;;;;;;;;2089658;28;20316;-56
2021/08/15 01:39:55;;;;;;;17.27;13.07;;;;;;;;;;2085505;28;20183;-59
2021/08/15 01:40:55;;;;;;;18.90;13.10;;;;;;;;;;2089122;28;20171;-59
2021/08/15 01:41:55;;;;;;;15.95;12.60;;;;;;;;;;2081728;28;20215;-57
2021/08/15 01:42:56;;;;;;;19.77;12.77;;;;;;;;;;2083838;28;20551;-61
2021/08/15 01:43:57;;;;;;;22.70;13.15;;;;;;;;;;2081327;28;20164;-60
2021/08/15 01:45:01;;;;;;;18.02;13.30;;;;;;;;;;2083419;28;20564;-60
2021/08/15 01:46:01;;;;;;;19.55;12.85;;;;;;;;;;2086159;28;20167;-59
2021/08/15 01:47:01;;;;;;;14.75;11.70;;;;;;;;;;2090254;28;20597;-59
2021/08/15 01:48:02;;;;;;;16.13;13.23;;;;;;;;;;2084105;28;20179;-58
2021/08/15 01:50:21;;;;;;;15.93;12.65;;;;;;;;;;2078450;28;20246;-54
2021/08/15 01:51:21;;;;;;;20.38;12.93;;;;;;;;;;2082176;28;20168;-57
2021/08/15 01:52:22;;;;;;;17.08;12.77;;;;;;;;;;2081957;28;20168;-56
2021/08/15 01:53:22;;;;;;;15.13;12.23;;;;;;;;;;2082595;28;20176;-57
2021/08/15 01:54:22;;;;;;;14.70;12.27;;;;;;;;;;2082082;28;20723;-56
2021/08/15 01:55:22;;;;;;;16.02;11.90;;;;;;;;;;2081858;28;20200;-56
2021/08/15 01:56:23;;;;;;;15.73;12.30;;;;;;;;;;2081748;28;20273;-56
2021/08/15 01:57:23;;;;;;;18.02;12.90;;;;;;;;;;2082563;28;20178;-56
2021/08/15 01:58:23;;;;;;;18.63;12.38;;;;;;;;;;2080749;28;20242;-55
2021/08/15 01:59:27;;;;;;;18.20;12.07;;;;;;;;;;2081783;28;20168;-56
2021/08/15 02:00:27;;;;;;;16.77;11.88;;;;;;;;;;2089956;28;20174;-54
2021/08/15 02:01:27;;;;;;;17.23;11.55;;;;;;;;;;2090108;28;20245;-55
2021/08/15 02:02:27;;;;;;;15.70;11.70;;;;;;;;;;2087257;28;20635;-56
2021/08/15 02:03:28;;;;;;;15.98;12.15;;;;;;;;;;2089378;28;20624;-54
2021/08/15 02:04:28;;;;;;;16.02;11.55;;;;;;;;;;2082652;28;20358;-54
2021/08/15 02:05:28;;;;;;;16.13;11.77;;;;;;;;;;2082685;28;20169;-55
2021/08/15 02:06:29;;;;;;;15.75;12.02;;;;;;;;;;2079678;28;20680;-54
2021/08/15 02:07:29;;;;;;;15.45;11.30;;;;;;;;;;2081575;28;20179;-56
2021/08/15 02:08:29;;;;;;;18.23;11.30;;;;;;;;;;2089514;28;20174;-56
2021/08/15 02:09:29;;;;;;;17.45;12.25;;;;;;;;;;2082266;28;20200;-52
2021/08/15 02:10:30;;;;;;;17.98;12.75;;;;;;;;;;2090399;28;20168;-55
2021/08/15 02:11:30;;;;;;;14.95;11.80;;;;;;;;;;2084768;28;20171;-56
2021/08/15 02:12:30;;;;;;;14.77;12.55;;;;;;;;;;2089877;28;20682;-57
2021/08/15 02:13:31;;;;;;;18.95;12.18;;;;;;;;;;2082179;28;20164;-52
2021/08/15 02:14:32;;;;;;;14.95;12.10;;;;;;;;;;2089996;28;20230;-57
2021/08/15 02:15:32;;;;;;;17.08;12.52;;;;;;;;;;2074165;28;20256;-54
2021/08/15 02:16:33;;;;;;;17.27;12.13;;;;;;;;;;2084126;28;20199;-56
2021/08/15 02:17:33;;;;;;;15.13;12.15;;;;;;;;;;2090181;28;20650;-52
2021/08/15 02:18:33;;;;;;;17.70;12.63;;;;;;;;;;2081922;28;20652;-56
2021/08/15 02:19:34;;;;;;;16.25;12.80;;;;;;;;;;2090415;28;20196;-53
2021/08/15 02:20:34;;;;;;;20.02;12.35;;;;;;;;;;2090363;28;20171;-54
2021/08/15 02:21:35;;;;;;;17.70;12.15;;;;;;;;;;2083183;28;20172;-51
2021/08/15 02:22:35;;;;;;;16.88;12.13;;;;;;;;;;2089429;28;20187;-53
2021/08/15 02:23:35;;;;;;;17.98;12.10;;;;;;;;;;2082586;28;20164;-53
2021/08/15 02:24:36;;;;;;;18.40;12.73;;;;;;;;;;2081617;28;20172;-56
2021/08/15 02:25:36;;;;;;;20.25;12.65;;;;;;;;;;2081971;28;20169;-53
2021/08/15 02:26:36;;;;;;;16.48;11.85;;;;;;;;;;2072799;28;20673;-51
2021/08/15 02:27:37;;;;;;;15.20;11.90;;;;;;;;;;2073317;28;20263;-52
2021/08/15 02:28:37;;;;;;;16.67;13.00;;;;;;;;;;2081117;28;20675;-54
2021/08/15 02:29:38;;;;;;;16.65;12.13;;;;;;;;;;2082441;28;20234;-55
2021/08/15 02:30:38;;;;;;;14.52;11.40;;;;;;;;;;2082599;28;20641;-55
2021/08/15 02:31:38;;;;;;;15.18;11.50;;;;;;;;;;2082637;28;20625;-55
2021/08/15 02:32:39;;;;;;;16.58;12.02;;;;;;;;;;2082553;28;20176;-53
2021/08/15 02:33:39;;;;;;;18.67;12.27;;;;;;;;;;2082834;28;20164;-54
2021/08/15 02:34:40;;;;;;;15.25;11.95;;;;;;;;;;2082581;28;20234;-56
2021/08/15 02:35:40;;;;;;;16.08;12.55;;;;;;;;;;2082447;28;20188;-51
2021/08/15 02:36:41;;;;;;;18.13;12.13;;;;;;;;;;2082111;28;20553;-52
2021/08/15 02:37:42;;;;;;;17.20;12.05;;;;;;;;;;2082247;28;20172;-52
2021/08/15 02:38:42;;;;;;;13.65;11.05;;;;;;;;;;2081884;28;20168;-53
2021/08/15 02:39:42;;;;;;;15.43;12.48;;;;;;;;;;2082633;28;20275;-56
2021/08/15 02:40:43;;;;;;;17.30;12.38;;;;;;;;;;2082490;28;20198;-56
2021/08/15 02:41:43;;;;;;;17.23;12.15;;;;;;;;;;2073457;28;20215;-56
2021/08/15 02:42:44;;;;;;;16.90;12.48;;;;;;;;;;2073637;28;20656;-53
2021/08/15 02:43:44;;;;;;;18.80;12.18;;;;;;;;;;2082403;28;20640;-53
2021/08/15 02:44:45;;;;;;;15.65;12.20;;;;;;;;;;2081474;28;20175;-52
2021/08/15 02:45:45;;;;;;;14.38;12.10;;;;;;;;;;2081665;28;20255;-55
2021/08/15 02:46:45;;;;;;;17.23;12.82;;;;;;;;;;2082284;28;20679;-54
2021/08/15 02:47:46;;;;;;;15.55;12.63;;;;;;;;;;2080705;28;20168;-54
2021/08/15 02:48:46;;;;;;;18.02;12.07;;;;;;;;;;2072668;28;20299;-54
2021/08/15 02:49:47;;;;;;;15.63;11.80;;;;;;;;;;2072891;28;20201;-54
2021/08/15 02:50:47;;;;;;;19.60;13.00;;;;;;;;;;2081808;28;20175;-54
2021/08/15 02:51:47;;;;;;;15.73;12.88;;;;;;;;;;2083543;28;20176;-55
2021/08/15 02:52:48;;;;;;;18.67;13.30;;;;;;;;;;2085646;28;20191;-56
2021/08/15 02:53:48;;;;;;;18.73;13.07;;;;;;;;;;2085517;28;20176;-55
2021/08/15 02:54:48;;;;;;;16.98;12.75;;;;;;;;;;2084988;28;20540;-54
2021/08/15 02:55:49;;;;;;;18.17;12.50;;;;;;;;;;2072761;28;20172;-53
2021/08/15 02:56:49;;;;;;;14.90;11.27;;;;;;;;;;2072893;28;20199;-52
2021/08/15 02:57:49;;;;;;;19.88;12.98;;;;;;;;;;2081647;28;20172;-52
2021/08/15 02:58:49;;;;;;;16.33;13.00;;;;;;;;;;2080897;28;20568;-55
2021/08/15 02:59:49;;;;;;;20.08;13.88;;;;;;;;;;2081623;28;20223;-52
2021/08/15 03:00:52;;;;;;;17.30;13.02;;;;;;;;;;2072726;28;20244;-56
2021/08/15 03:01:52;;;;;;;18.27;13.10;;;;;;;;;;2073117;28;20177;-55
2021/08/15 03:02:52;;;;;;;16.80;12.13;;;;;;;;;;2081490;28;20181;-56
2021/08/15 03:03:52;;;;;;;14.52;11.10;;;;;;;;;;2081685;28;20175;-56
2021/08/15 03:04:53;;;;;;;15.38;11.75;;;;;;;;;;2081501;28;20628;-56
2021/08/15 03:05:53;;;;;;;15.07;11.57;;;;;;;;;;2072886;28;20181;-56
2021/08/15 03:06:53;;;;;;;17.55;13.07;;;;;;;;;;2072762;28;20287;-55
2021/08/15 03:07:53;;;;;;;16.60;12.07;;;;;;;;;;2081117;28;20167;-52
2021/08/15 03:08:54;;;;;;;18.30;12.10;;;;;;;;;;2081567;28;20187;-53
2021/08/15 03:09:54;;;;;;;17.42;12.70;;;;;;;;;;2081608;28;20188;-53
2021/08/15 03:10:54;;;;;;;16.40;12.75;;;;;;;;;;2081609;28;20168;-53
2021/08/15 03:11:55;;;;;;;17.55;12.85;;;;;;;;;;2081208;28;20176;-59
2021/08/15 03:12:55;;;;;;;17.00;12.88;;;;;;;;;;2081152;28;20256;-53
2021/08/15 03:13:55;;;;;;;17.98;12.68;;;;;;;;;;2081510;28;20259;-54
2021/08/15 03:14:55;;;;;;;14.80;11.93;;;;;;;;;;2081394;28;20176;-54
2021/08/15 03:15:56;;;;;;;17.48;12.05;;;;;;;;;;2081715;28;20172;-54
2021/08/15 03:16:56;;;;;;;16.73;12.75;;;;;;;;;;2081506;28;20239;-55
2021/08/15 03:17:56;;;;;;;13.50;11.68;;;;;;;;;;2081213;28;20191;-54
2021/08/15 03:18:56;;;;;;;19.67;13.13;;;;;;;;;;2081371;28;20176;-56
2021/08/15 03:19:57;;;;;;;20.60;12.52;;;;;;;;;;2081535;28;20287;-54
2021/08/15 03:20:57;;;;;;;15.48;13.05;;;;;;;;;;2072725;28;20208;-58
2021/08/15 03:21:58;;;;;;;15.75;13.18;;;;;;;;;;2072931;28;20524;-57
2021/08/15 03:22:58;;;;;;;15.65;12.23;;;;;;;;;;2081352;28;20169;-56
2021/08/15 03:23:58;;;;;;;18.83;12.95;;;;;;;;;;2081448;28;20176;-53
2021/08/15 03:24:59;;;;;;;16.85;12.98;;;;;;;;;;2081600;28;20230;-52
2021/08/15 03:25:59;;;;;;;16.95;12.95;;;;;;;;;;2081434;28;20314;-54
2021/08/15 03:26:59;;;;;;;15.52;13.50;;;;;;;;;;2072710;28;20204;-55
2021/08/15 03:28:00;;;;;;;15.73;12.70;;;;;;;;;;2070698;28;20185;-58
2021/08/15 03:29:00;;;;;;;18.92;12.85;;;;;;;;;;2081171;28;20179;-56
2021/08/15 03:30:00;;;;;;;16.80;12.50;;;;;;;;;;2084570;28;20663;-53
2021/08/15 03:31:00;;;;;;;19.77;13.77;;;;;;;;;;2085008;28;20250;-52
2021/08/15 03:32:01;;;;;;;19.02;13.50;;;;;;;;;;2089062;28;20258;-54
2021/08/15 03:33:01;;;;;;;19.88;13.23;;;;;;;;;;2089130;28;20190;-56
2021/08/15 03:34:01;;;;;;;17.42;13.23;;;;;;;;;;2075717;28;20188;-55
2021/08/15 03:35:02;;;;;;;17.10;13.65;;;;;;;;;;2073250;28;20164;-57
2021/08/15 03:36:02;;;;;;;19.83;13.60;;;;;;;;;;2084050;28;20655;-56
2021/08/15 03:37:03;;;;;;;19.40;13.75;;;;;;;;;;2081493;28;20624;-55
2021/08/15 03:38:03;;;;;;;17.80;12.95;;;;;;;;;;2074896;28;20532;-56
2021/08/15 03:39:04;;;;;;;21.13;12.75;;;;;;;;;;2070053;28;20270;-56
2021/08/15 03:40:04;;;;;;;17.88;13.10;;;;;;;;;;2074897;28;20200;-57
2021/08/15 03:41:05;;;;;;;18.13;13.20;;;;;;;;;;2082048;28;20171;-56
2021/08/15 03:42:05;;;;;;;19.00;12.95;;;;;;;;;;2083963;28;20270;-53
2021/08/15 03:43:05;;;;;;;17.00;13.00;;;;;;;;;;2081901;28;20275;-54
2021/08/15 03:44:06;;;;;;;18.95;12.77;;;;;;;;;;2081149;28;20179;-55
2021/08/15 03:45:07;;;;;;;15.10;12.30;;;;;;;;;;2080763;28;20203;-54
2021/08/15 03:46:07;;;;;;;19.52;13.43;;;;;;;;;;2086177;28;20215;-55
2021/08/15 03:47:07;;;;;;;19.10;13.85;;;;;;;;;;2089169;28;20163;-53
2021/08/15 03:48:07;;;;;;;19.67;14.57;;;;;;;;;;2082570;28;20184;-55
2021/08/15 03:49:08;;;;;;;17.65;13.23;;;;;;;;;;2079910;28;20199;-57
2021/08/15 03:50:08;;;;;;;17.58;12.45;;;;;;;;;;2079906;28;20207;-54
2021/08/15 03:51:08;;;;;;;21.00;13.50;;;;;;;;;;2086097;28;20214;-53
2021/08/15 03:52:09;;;;;;;19.70;13.52;;;;;;;;;;2084361;28;20187;-56
2021/08/15 03:53:09;;;;;;;17.52;14.15;;;;;;;;;;2086609;28;20207;-56
2021/08/15 03:54:09;;;;;;;19.33;14.43;;;;;;;;;;2087174;28;20174;-53
2021/08/15 03:55:13;;;;;;;19.30;14.60;;;;;;;;;;2075333;28;20327;-55
2021/08/15 03:56:13;;;;;;;19.17;13.85;;;;;;;;;;2078700;28;20302;-57
2021/08/15 03:57:13;;;;;;;19.30;14.10;;;;;;;;;;2089235;28;20172;-57
2021/08/15 03:58:13;;;;;;;19.63;13.93;;;;;;;;;;2086626;28;20191;-54
2021/08/15 03:59:14;;;;;;;17.48;13.35;;;;;;;;;;2088243;28;20172;-53
2021/08/15 04:00:15;;;;;;;17.55;13.90;;;;;;;;;;2083969;28;20177;-54
2021/08/15 04:01:17;;;;;;;21.00;15.07;;;;;;;;;;2088015;28;20178;-53
2021/08/15 04:02:17;;;;;;;19.50;13.77;;;;;;;;;;2082390;28;20172;-53
2021/08/15 04:03:17;;;;;;;19.80;14.30;;;;;;;;;;2073378;28;20213;-57
2021/08/15 04:04:17;;;;;;;18.30;13.57;;;;;;;;;;2065292;28;20535;-53
2021/08/15 04:05:18;;;;;;;21.77;14.02;;;;;;;;;;2073643;28;20173;-53
2021/08/15 04:06:22;;;;;;;17.75;14.35;;;;;;;;;;2076474;28;20381;-55
2021/08/15 04:07:22;;;;;;;18.00;14.63;;;;;;;;;;2080597;28;20172;-56
2021/08/15 04:08:22;;;;;;;25.65;14.88;;;;;;;;;;2081275;28;20218;-55
2021/08/15 04:09:23;;;;;;;18.77;14.88;;;;;;;;;;2081160;28;20254;-57
2021/08/15 04:10:23;;;;;;;20.52;13.98;;;;;;;;;;2079560;28;20227;-56
2021/08/15 04:11:23;;;;;;;17.67;14.07;;;;;;;;;;2088598;28;20176;-56
2021/08/15 04:12:23;;;;;;;22.48;14.43;;;;;;;;;;2079719;28;20286;-58
2021/08/15 04:13:24;;;;;;;18.73;15.13;;;;;;;;;;2080699;28;20636;-52
2021/08/15 04:14:24;;;;;;;18.67;14.73;;;;;;;;;;2074369;28;20185;-57
2021/08/15 04:15:24;;;;;;;22.77;14.13;;;;;;;;;;2088725;28;20204;-57
2021/08/15 04:16:25;;;;;;;22.55;14.65;;;;;;;;;;2070635;28;20174;-56
2021/08/15 04:17:25;;;;;;;18.55;14.75;;;;;;;;;;2079918;28;20211;-52
2021/08/15 04:18:25;;;;;;;18.10;13.65;;;;;;;;;;2082706;28;20227;-53
2021/08/15 04:19:25;;;;;;;18.85;14.30;;;;;;;;;;2081928;28;20255;-55
2021/08/15 04:20:25;;;;;;;17.58;14.35;;;;;;;;;;2082237;28;20184;-55
2021/08/15 04:21:26;;;;;;;21.67;14.38;;;;;;;;;;2089606;28;20269;-54
2021/08/15 04:22:26;;;;;;;17.55;13.70;;;;;;;;;;2076591;28;20172;-57
2021/08/15 04:23:26;;;;;;;16.50;14.30;;;;;;;;;;2081035;28;20191;-56
2021/08/15 04:24:27;;;;;;;19.98;14.35;;;;;;;;;;2075558;28;20180;-55
2021/08/15 04:25:27;;;;;;;19.30;14.50;;;;;;;;;;2089687;28;20199;-55
2021/08/15 04:26:27;;;;;;;17.45;14.32;;;;;;;;;;2074788;28;20281;-54
2021/08/15 04:27:28;;;;;;;20.50;14.70;;;;;;;;;;2080867;28;20160;-56
2021/08/15 04:28:28;;;;;;;18.10;14.15;;;;;;;;;;2072313;28;20189;-53
2021/08/15 04:29:29;;;;;;;22.38;14.27;;;;;;;;;;2090579;28;20187;-51
2021/08/15 04:30:29;;;;;;;22.15;14.80;;;;;;;;;;2074365;28;20173;-56
2021/08/15 04:31:29;;;;;;;18.50;13.75;;;;;;;;;;2081138;28;20187;-52
2021/08/15 04:32:30;;;;;;;18.75;14.35;;;;;;;;;;2081952;28;20564;-56
2021/08/15 04:33:30;;;;;;;22.30;15.05;;;;;;;;;;2089122;28;20259;-55
2021/08/15 04:34:30;;;;;;;18.70;15.30;;;;;;;;;;2073231;28;20173;-54
2021/08/15 04:35:30;;;;;;;15.23;13.32;;;;;;;;;;2079431;28;20595;-55
2021/08/15 04:36:31;;;;;;;21.67;14.93;;;;;;;;;;2090158;28;20857;-55
2021/08/15 04:37:31;;;;;;;21.67;13.50;;;;;;;;;;2081110;28;20195;-55
2021/08/15 04:38:32;;;;;;;18.25;14.02;;;;;;;;;;2089626;28;20247;-53
2021/08/15 04:39:32;;;;;;;17.35;13.45;;;;;;;;;;2081947;28;20286;-56
2021/08/15 04:40:32;;;;;;;22.30;14.45;;;;;;;;;;2089918;28;20658;-56
2021/08/15 04:41:32;;;;;;;15.75;13.32;;;;;;;;;;2082131;28;20172;-56
2021/08/15 04:42:33;;;;;;;16.35;13.88;;;;;;;;;;2089808;28;20183;-53
2021/08/15 04:43:33;;;;;;;17.67;13.63;;;;;;;;;;2071489;28;20281;-54
2021/08/15 04:44:33;;;;;;;17.27;13.10;;;;;;;;;;2073092;28;20185;-53
2021/08/15 04:45:35;;;;;;;17.70;13.00;;;;;;;;;;2082603;28;20199;-53
2021/08/15 04:46:35;;;;;;;16.48;13.55;;;;;;;;;;2089249;28;20215;-53
2021/08/15 04:47:36;;;;;;;19.17;13.93;;;;;;;;;;2079997;28;20173;-54
2021/08/15 04:48:36;;;;;;;18.17;13.48;;;;;;;;;;2088837;28;20282;-55
2021/08/15 04:49:36;;;;;;;19.50;14.35;;;;;;;;;;2082743;28;20206;-57
2021/08/15 04:50:36;;;;;;;18.23;12.90;;;;;;;;;;2080241;28;20157;-54
2021/08/15 04:51:37;;;;;;;18.10;13.18;;;;;;;;;;2070652;28;20268;-57
2021/08/15 04:52:37;;;;;;;17.23;13.02;;;;;;;;;;2088945;28;20184;-55
2021/08/15 04:53:37;;;;;;;18.45;13.27;;;;;;;;;;2078796;28;20169;-56
2021/08/15 04:54:37;;;;;;;18.17;13.25;;;;;;;;;;2089044;28;20175;-55
2021/08/15 04:55:38;;;;;;;18.05;12.82;;;;;;;;;;2082039;28;20168;-58
2021/08/15 04:56:38;;;;;;;18.58;13.10;;;;;;;;;;2089134;28;20175;-56
2021/08/15 04:57:39;;;;;;;18.33;13.40;;;;;;;;;;2077928;28;20187;-56
2021/08/15 04:58:39;;;;;;;17.92;13.50;;;;;;;;;;2088153;28;20679;-55
2021/08/15 04:59:39;;;;;;;21.08;13.85;;;;;;;;;;2079273;28;20204;-57
2021/08/15 05:00:40;;;;;;;15.95;13.65;;;;;;;;;;2072740;28;20180;-59
2021/08/15 05:01:40;;;;;;;18.88;14.02;;;;;;;;;;2073023;28;20264;-55
2021/08/15 05:02:40;;;;;;;16.67;13.57;;;;;;;;;;2075888;28;20183;-56
2021/08/15 05:03:41;;;;;;;16.90;13.18;;;;;;;;;;2091479;28;20202;-57
2021/08/15 05:04:41;;;;;;;18.17;13.43;;;;;;;;;;2081727;28;20175;-56
2021/08/15 05:05:41;;;;;;;19.20;13.32;;;;;;;;;;2088898;28;20226;-52
2021/08/15 05:06:41;;;;;;;16.45;13.35;;;;;;;;;;2083691;28;20299;-54
2021/08/15 05:07:42;;;;;;;18.23;14.07;;;;;;;;;;2086991;28;20207;-53
2021/08/15 05:08:42;;;;;;;18.08;14.55;;;;;;;;;;2087832;28;20164;-55
2021/08/15 05:09:42;;;;;;;17.15;13.00;;;;;;;;;;2082651;28;20207;-53
2021/08/15 05:10:43;;;;;;;17.90;13.18;;;;;;;;;;2086310;28;20223;-57
2021/08/15 05:11:43;;;;;;;19.70;14.63;;;;;;;;;;2088651;28;20258;-56
2021/08/15 05:12:43;;;;;;;21.17;14.10;;;;;;;;;;2083676;28;20228;-56
2021/08/15 05:13:44;;;;;;;17.98;13.50;;;;;;;;;;2086893;28;20180;-54
2021/08/15 05:14:45;;;;;;;21.45;12.75;;;;;;;;;;2087984;28;20534;-59
2021/08/15 05:15:45;;;;;;;16.10;13.35;;;;;;;;;;2080923;28;20269;-55
2021/08/15 05:16:45;;;;;;;18.50;13.10;;;;;;;;;;2087917;28;20726;-56
2021/08/15 05:17:45;;;;;;;16.77;13.50;;;;;;;;;;2071770;28;20585;-55
2021/08/15 05:18:46;;;;;;;18.25;12.75;;;;;;;;;;2078678;28;20271;-57
2021/08/15 05:19:46;;;;;;;16.85;13.73;;;;;;;;;;2083658;28;20199;-57
2021/08/15 05:20:46;;;;;;;19.80;15.77;;;;;;;;;;2087863;28;20604;-56
2021/08/15 05:21:46;;;;;;;18.50;13.88;;;;;;;;;;2081515;28;20188;-58
2021/08/15 05:22:47;;;;;;;15.25;12.38;;;;;;;;;;2081897;28;20183;-57
2021/08/15 05:23:47;;;;;;;17.10;13.52;;;;;;;;;;2079774;28;20181;-58
2021/08/15 05:24:47;;;;;;;18.33;13.88;;;;;;;;;;2083151;28;20192;-53
2021/08/15 05:25:48;;;;;;;17.98;13.32;;;;;;;;;;2087773;28;20179;-56
2021/08/15 05:26:48;;;;;;;18.92;13.15;;;;;;;;;;2084183;28;20302;-52
2021/08/15 05:27:48;;;;;;;19.55;13.27;;;;;;;;;;2087676;28;20730;-53
2021/08/15 05:28:48;;;;;;;21.85;13.25;;;;;;;;;;2083836;28;20299;-54
2021/08/15 05:29:48;;;;;;;17.23;12.98;;;;;;;;;;2088198;28;20241;-58
2021/08/15 05:30:49;;;;;;;18.50;13.10;;;;;;;;;;2078713;28;20216;-55
2021/08/15 05:31:49;;;;;;;20.50;12.82;;;;;;;;;;2086552;28;20179;-58
2021/08/15 05:32:49;;;;;;;18.67;12.82;;;;;;;;;;2083973;28;20188;-57
2021/08/15 05:33:49;;;;;;;13.70;11.50;;;;;;;;;;2084711;28;20179;-56
2021/08/15 05:34:50;;;;;;;21.23;11.90;;;;;;;;;;2089160;28;20195;-57
2021/08/15 05:35:50;;;;;;;17.25;12.13;;;;;;;;;;2087081;28;20208;-57
2021/08/15 05:36:50;;;;;;;15.27;11.95;;;;;;;;;;2084323;28;20643;-55
2021/08/15 05:37:51;;;;;;;17.45;13.52;;;;;;;;;;2087792;28;20699;-55
2021/08/15 05:38:51;;;;;;;15.32;11.45;;;;;;;;;;2081313;28;20184;-57
2021/08/15 05:39:51;;;;;;;17.92;12.30;;;;;;;;;;2078954;28;20219;-56
2021/08/15 05:40:51;;;;;;;14.65;11.25;;;;;;;;;;2083005;28;20179;-55
2021/08/15 05:41:52;;;;;;;17.85;12.35;;;;;;;;;;2087151;28;20172;-56
2021/08/15 05:42:52;;;;;;;15.45;11.93;;;;;;;;;;2084331;28;20187;-56
2021/08/15 05:43:52;;;;;;;16.95;13.75;;;;;;;;;;2090318;28;20180;-56
2021/08/15 05:44:52;;;;;;;17.23;12.82;;;;;;;;;;2085219;28;20241;-52
2021/08/15 05:45:53;;;;;;;23.50;13.90;;;;;;;;;;2086585;28;20176;-55
2021/08/15 05:46:53;;;;;;;21.85;14.43;;;;;;;;;;2084260;28;20233;-54
2021/08/15 05:47:53;;;;;;;19.23;14.48;;;;;;;;;;2081318;28;20183;-55
2021/08/15 05:48:53;;;;;;;23.02;14.27;;;;;;;;;;2064558;28;20178;-57
2021/08/15 05:49:54;;;;;;;19.80;13.73;;;;;;;;;;2070650;28;20605;-53
2021/08/15 05:50:54;;;;;;;18.55;14.40;;;;;;;;;;2086822;28;20643;-52
2021/08/15 05:51:55;;;;;;;19.88;13.65;;;;;;;;;;2081720;28;20623;-56
2021/08/15 05:52:55;;;;;;;19.75;14.05;;;;;;;;;;2085764;28;20156;-56
2021/08/15 05:53:55;;;;;;;21.35;14.10;;;;;;;;;;2084823;28;20222;-53